Hauptseite
METAR-TAF:

METAR-TAF

Flughäfen :

Blackpool Airport

Blackpool, England

Breite: 53-46N, Länge: 003-02W, Höhe: 10 m

Beobachtung

Neuester Wetterbericht von vor 17 Minuten, um 15:50 UTC
Wind 13 kt aus Süd/Südost
Temperatur 13°C
Luftfeuchtigkeit 77%
Luftdruck 1016 hPa
Sichtweite 10 km oder mehr
Aufgelockert bewölkt in der Höhe von 3500 ft

METAR: EGNH 141550Z 15013KT 9999 SCT035 13/09 Q1016

Zeit: 16:07 (16:07 UTC)

Prognose

Neuester Wetterbericht von vor 2 Stunden und 11 Minuten, um 13:56 UTC
Gültige Prognose vom 14 um 15 UTC bis 14 um 21 UTC
Wind 9 kt aus Süd
Sichtweite 10 km oder mehr
Aufgelockert bewölkt in der Höhe von 4500 ft

TAF: EGNH 141356Z 1415/1421 17009KT 9999 SCT045

Wetterbeobachtungen und Prognosen von mehr als 4000 Flughäfen (METAR und TAF Bericht).

Die verfügbaren Stationen werden durch gelbe und rote Markierungen auf der Karte dargestellt.

Führen Sie die Maus auf sie, um den Namen der Station zu sehen.

Darauf klicken, um die Beobachtung von Wetterbeobachtungen und Prognosen zu sehen.

Um die Karte zu ändern : klicken Sie auf den grünen Tasten mit einem schwarzen Kreuz Zum Vergrößern, auf den grünen Button mit einem Gedankenstrich zu verkleinern, oder auf die grünen Pfeile für benachbarte Karten.


METAR-TAF: